Landels-Hill Big Creek Reserve Entrance, California Weather observations

Data are for 10 minute period ending at time listed.
 Day   Time   Solar   Ave.   Ave.  Ave.  Vector  Max.   Baro.   Total    
  of    of     Rad.   Air    Rel.  Wind   Wind   Wind  Press.  Precip.   
Year   Day            Temp.  Hum.  Speed  Dir.   Gust                    
2017   (PST)  Kw/m2    F      %     mph   deg.    mph    mb.     in.     
-------------------------------------------------------------------------
  51   22:10   0.00   57.4    93    4.6   285    13.3   1017.8    0.00 
  51   22:20   0.00   57.2    92    4.1   264    12.2   1017.8    0.00 
  51   22:30   0.00   57.9    85    6.1   268    16.7   1017.9    0.00 
  51   22:40   0.00   58.2    86    3.8   292     9.9   1018.0    0.00 
  51   22:50   0.00   58.2    88    4.5   279    16.4   1018.2    0.00 
  51   23:00   0.00   58.3    90    3.7   295    11.9   1018.4    0.00 
  51   23:10   0.00   58.1    91    3.8   301    16.0   1018.4    0.00 
  51   23:20   0.00   57.9    92    3.9   292    12.5   1018.5    0.00 
  51   23:30   0.00   57.9    92    4.6   301    11.2   1018.8    0.00 
  51   23:40   0.00   58.0    93    8.0   271    19.9   1018.8    0.00 
  51   23:50   0.00   58.1    92    7.5   273    21.3   1018.8    0.00 
  52    0:00   0.00   58.0    92    5.1   293    16.6   1018.9    0.00 
  52    0:10   0.00   58.0    92    5.7   287    15.0   1019.1    0.00 
  52    0:20   0.00   58.3    91    7.7   271    19.4   1019.1    0.00 
  52    0:30   0.00   58.1    92    4.2   295    15.1   1019.3    0.00 
  52    0:40   0.00   58.1    92    5.3   281    16.7   1019.3    0.00 
  52    0:50   0.00   57.9    92    5.1   277    18.6   1019.4    0.00 
  52    1:00   0.00   57.9    93    5.4   263    16.0   1019.3    0.00 
  52    1:10   0.00   57.8    93    6.6   264    16.5   1019.4    0.00 
  52    1:20   0.00   57.7    94    4.2   280    11.2   1019.4    0.00 
  52    1:30   0.00   57.6    94    5.5   277    14.6   1019.4    0.00 
  52    1:40   0.00   57.4    95    5.4   274    14.4   1019.4    0.00 
  52    1:50   0.00   57.2    95    4.3   273    13.3   1019.4    0.00 
  52    2:00   0.00   57.0    95    3.3   288     8.5   1019.4    0.00 
  52    2:10   0.00   57.0    96    3.5   281     9.9   1019.3    0.00 
  52    2:20   0.00   56.9    96    4.5   272    14.7   1019.3    0.00 
  52    2:30   0.00   56.9    96    2.4   303     6.1   1019.3    0.00 
  52    2:40   0.00   56.9    96    3.5   282    11.1   1019.2    0.00 
  52    2:50   0.00   57.0    96    5.5   264    12.6   1019.1    0.00 
  52    3:00   0.00   57.0    96    4.8   257    11.2   1019.0    0.00 
  52    3:10   0.00   57.0    95    4.2   273     8.8   1019.0    0.00 
  52    3:20   0.00   57.0    95    4.8   268    11.7   1019.1    0.00 
  52    3:30   0.00   57.0    95    4.3   264     9.6   1019.0    0.00 
  52    3:40   0.00   57.1    94    2.6   277     7.3   1019.0    0.00 
  52    3:50   0.00   57.2    94    2.7   289     7.2   1018.9    0.00 
  52    4:00   0.00   57.2    94    2.0   307     7.4   1019.0    0.00 
  52    4:10   0.00   57.0    94    2.4   287     6.1   1019.1    0.00 
  52    4:20   0.00   57.0    93    1.2   318     3.4   1019.1    0.00 
  52    4:30   0.00   57.2    93    2.7   281     7.5   1019.2    0.00 
  52    4:40   0.00   57.3    93    2.6   289     7.2   1019.1    0.00 
  52    4:50   0.00   57.3    93    3.0   300     9.4   1019.1    0.00 
  52    5:00   0.00   57.3    93    4.2   274    11.0   1019.1    0.00 
  52    5:10   0.00   57.2    93    3.2   281     8.4   1019.1    0.00 
  52    5:20   0.00   57.1    93    3.4   275    12.2   1019.0    0.00 
  52    5:30   0.00   57.0    93    2.8   276     7.5   1019.1    0.00 
  52    5:40   0.00   57.0    92    4.0   263     8.0   1019.3    0.00 
  52    5:50   0.00   57.2    91    1.8   253     6.1   1019.5    0.00 
  52    6:00   0.00   57.1    91    2.8   276     7.7   1019.6    0.00 
  52    6:10   0.00   57.2    91    2.0   296     7.5   1019.7    0.00 
  52    6:20   0.00   57.2    91    0.8     9     2.9   1019.8    0.00 
  52    6:30   0.00   57.1    91    1.7   279     7.3   1019.9    0.00 
  52    6:40   0.00   57.1    91    1.7   262     6.3   1019.9    0.00 
  52    6:50   0.01   57.0    91    1.5   279     5.0   1020.0    0.00 
  52    7:00   0.01   56.9    91    0.8   358     2.4   1020.1    0.00 
  52    7:10   0.01   56.9    91    1.1   329     3.6   1020.1    0.00 
  52    7:20   0.01   56.9    92    1.4   329     4.2   1020.3    0.00 
  52    7:30   0.01   56.8    92    1.7   301     5.7   1020.4    0.00 
  52    7:40   0.01   56.8    93    1.6   304     4.4   1020.5    0.00 
  52    7:50   0.02   56.7    93    1.1   308     3.5   1020.6    0.00 
  52    8:00   0.03   56.7    93    1.1   300     3.3   1020.7    0.00 
  52    8:10   0.03   56.7    93    0.9    17     3.2   1020.8    0.00 
  52    8:20   0.03   56.7    93    1.4   300     5.2   1020.8    0.00 
  52    8:30   0.04   56.7    94    0.8   347     2.5   1020.9    0.00 
  52    8:40   0.05   56.8    94    1.2   334     3.4   1020.9    0.00 
  52    8:50   0.06   56.8    93    1.4   303     4.2   1020.9    0.00 
  52    9:00   0.10   56.9    93    1.0   289     3.0   1021.0    0.00 
  52    9:10   0.11   57.0    93    1.7   280     4.5   1021.0    0.00 
  52    9:20   0.12   57.5    92    0.8   295     2.5   1021.1    0.00 
  52    9:30   0.11   57.6    92    1.1   305     3.3   1021.1    0.00 
  52    9:40   0.12   57.5    91    0.9   297     4.2   1021.2    0.00 
  52    9:50   0.20   57.8    91    1.1   302     4.2   1021.3    0.00 
  52   10:00   0.20   58.3    90    1.2   305     4.3   1021.4    0.00 
  52   10:10   0.18   58.3    89    0.9   308     3.5   1021.4    0.00 
  52   10:20   0.17   58.3    89    1.2   289     4.2   1021.4    0.00 
  52   10:30   0.24   58.2    88    1.6   280     4.0   1021.5    0.00 
  52   10:40   0.34   58.7    88    1.0   288     3.1   1021.5    0.00 
  52   10:50   0.42   59.6    86    1.6   288     4.7   1021.5    0.00 
  52   11:00   0.42   59.8    85    1.0   306     3.0   1021.5    0.00 
  52   11:10   0.36   59.8    85    1.1   294     3.5   1021.6    0.00 
  52   11:20   0.28   59.5    85    1.1   290     3.7   1021.7    0.00 
  52   11:30   0.28   59.5    85    1.2   272     3.8   1021.7    0.00 
  52   11:40   0.26   59.3    85    1.1   271     3.7   1021.5    0.00 
  52   11:50   0.24   59.2    85    1.3   286     3.4   1021.4    0.00 
  52   12:00   0.35   59.3    85    1.2   270     4.0   1021.4    0.00 
  52   12:10   0.56   59.9    84    1.8   280     5.3   1021.3    0.00 
  52   12:20   0.68   60.3    83    2.3   279     5.3   1021.1    0.00 
  52   12:30   0.69   60.8    82    1.8   289     5.7   1021.0    0.00 
  52   12:40   0.70   60.4    82    2.2   280     5.3   1021.1    0.00 
  52   12:50   0.64   60.4    83    2.5   277     6.2   1021.3    0.00 
  52   13:00   0.55   60.2    83    2.0   281     4.6   1021.2    0.00 
  52   13:10   0.66   60.6    82    2.4   277     5.3   1021.1    0.00 
  52   13:20   0.47   60.3    81    1.7   279     5.0   1021.0    0.00 
  52   13:30   0.62   60.3    81    2.8   276     6.3   1020.9    0.00 
  52   13:40   0.65   60.3    81    2.0   281     5.6   1020.8    0.00 
  52   13:50   0.55   60.8    80    1.7   276     5.3   1020.8    0.00 
  52   14:00   0.33   60.4    79    1.4   303     4.9   1020.7    0.00 
  52   14:10   0.34   59.8    80    2.5   275     5.8   1020.6    0.00 
  52   14:20   0.30   59.4    80    1.9   278     4.5   1020.3    0.00 
  52   14:30   0.30   59.4    81    1.8   282     5.6   1020.2    0.00 
  52   14:40   0.31   59.7    79    2.0   269     4.4   1020.2    0.00 
  52   14:50   0.21   59.1    80    1.7   278     4.2   1020.0    0.00 
  52   15:00   0.28   59.0    79    1.9   276     4.5   1019.9    0.00 
  52   15:10   0.31   59.7    80    1.5   275     4.7   1019.9    0.00 
  52   15:20   0.26   60.4    78    1.5   292     4.3   1020.0    0.00 
  52   15:30   0.11   59.1    78    1.8   284     6.9   1020.0    0.00 
  52   15:40   0.08   58.4    80    0.9   232     3.4   1019.8    0.00 
  52   15:50   0.09   58.0    80    0.8   198     3.1   1019.6    0.00 
  52   16:00   0.08   57.8    82    1.4   137     3.8   1019.6    0.00 
  52   16:10   0.06   57.8    83    0.4   195     2.0   1019.5    0.00 
  52   16:20   0.08   57.8    84    0.4   253     2.0   1019.5    0.00 
  52   16:30   0.09   57.8    85    0.6   297     3.1   1019.5    0.00 
  52   16:40   0.08   57.7    85    0.7   298     3.2   1019.5    0.00 
  52   16:50   0.06   57.7    86    0.6   283     2.2   1019.6    0.00 
  52   17:00   0.06   57.5    86    0.3    55     1.5   1019.5    0.00 
  52   17:10   0.06   57.5    86    0.7    57     2.4   1019.5    0.00 
  52   17:20   0.07   57.6    87    0.2   308     1.2   1019.4    0.00 
  52   17:30   0.09   57.5    86    0.2    61     1.2   1019.5    0.00 
  52   17:40   0.06   57.3    86    1.0   120     4.1   1019.5    0.00 
  52   17:50   0.03   56.8    87    0.7    80     3.7   1019.5    0.00 
  52   18:00   0.01   56.7    87    0.5    81     3.1   1019.7    0.00 
  52   18:10   0.00   56.6    87    0.3    82     2.1   1019.9    0.00 
  52   18:20   0.00   56.5    88    0.5    68     2.2   1019.9    0.00 
  52   18:30   0.00   56.4    88    0.2    50     1.5   1020.0    0.00 
  52   18:40   0.00   56.3    89    0.2   119     2.2   1020.1    0.00 
  52   18:50   0.00   56.3    89    0.5    99     2.4   1020.2    0.00 
  52   19:00   0.00   56.2    89    0.2   104     1.2   1020.2    0.00 
  52   19:10   0.00   56.1    90    0.4   309     1.6   1020.2    0.00 
  52   19:20   0.00   56.0    90    2.4   108     4.2   1020.2    0.00 
  52   19:30   0.00   55.9    90    3.0    97     5.0   1020.3    0.00 
  52   19:40   0.00   55.9    90    2.7   107     5.2   1020.4    0.00 
  52   19:50   0.00   55.9    90    4.4    77     7.8   1020.4    0.00 
  52   20:00   0.00   55.8    90    4.0    86     7.0   1020.5    0.00 
  52   20:10   0.00   55.6    90    3.7   113     6.6   1020.4    0.00 
  52   20:20   0.00   55.5    90    3.3   141     8.6   1020.5    0.00 
  52   20:30   0.00   55.4    88    4.3    78    10.1   1020.6    0.00 
  52   20:40   0.00   55.5    87    5.1    66     9.6   1020.8    0.00 
  52   20:50   0.00   55.5    86    5.2    61     9.5   1020.9    0.00 
  52   21:00   0.00   55.5    85    5.4    68     9.6   1021.0    0.00 
  52   21:10   0.00   55.5    85    5.2    65     8.6   1021.2    0.00 
  52   21:20   0.00   55.4    86    4.3    70     7.5   1021.1    0.00 
  52   21:30   0.00   55.3    86    5.2   111    10.5   1021.1    0.00 
  52   21:40   0.00   54.9    84    3.5    79    10.2   1021.1    0.00 
  52   21:50   0.00   54.4    82    1.4   112     3.7   1021.1    0.00 
  52   22:00   0.00   54.2    78    3.0    84     6.2   1021.3    0.00 

Return to Big Creek Reserve Entrance graphs page.


Western Regional Climate Center,wrcc@dri.edu